sensor_id;sensor_type;location;lat;lon;timestamp;P1;durP1;ratioP1;P2;durP2;ratioP2
5630;SDS011;2837;50.990;7.124;2024-01-30T06:00:28;162.27;;;10.70;;
5630;SDS011;2837;50.990;7.124;2024-01-30T06:02:54;161.88;;;10.18;;
5630;SDS011;2837;50.990;7.124;2024-01-30T06:05:19;162.13;;;10.63;;
5630;SDS011;2837;50.990;7.124;2024-01-30T06:07:45;164.68;;;10.40;;
5630;SDS011;2837;50.990;7.124;2024-01-30T06:10:11;162.90;;;10.20;;
5630;SDS011;2837;50.990;7.124;2024-01-30T06:12:37;163.00;;;10.40;;
5630;SDS011;2837;50.990;7.124;2024-01-30T06:15:03;162.88;;;10.68;;
5630;SDS011;2837;50.990;7.124;2024-01-30T06:17:30;163.48;;;10.40;;
5630;SDS011;2837;50.990;7.124;2024-01-30T06:19:56;164.77;;;10.70;;
5630;SDS011;2837;50.990;7.124;2024-01-30T06:22:21;161.65;;;10.10;;
5630;SDS011;2837;50.990;7.124;2024-01-30T06:24:47;161.43;;;10.40;;
5630;SDS011;2837;50.990;7.124;2024-01-30T06:27:13;162.23;;;10.23;;
5630;SDS011;2837;50.990;7.124;2024-01-30T06:29:40;163.25;;;10.30;;
5630;SDS011;2837;50.990;7.124;2024-01-30T06:32:06;161.97;;;10.00;;
5630;SDS011;2837;50.990;7.124;2024-01-30T06:34:32;162.88;;;10.02;;
5630;SDS011;2837;50.990;7.124;2024-01-30T06:36:58;162.50;;;10.10;;
5630;SDS011;2837;50.990;7.124;2024-01-30T06:39:23;162.50;;;10.60;;
5630;SDS011;2837;50.990;7.124;2024-01-30T06:41:50;163.95;;;10.60;;
5630;SDS011;2837;50.990;7.124;2024-01-30T06:44:15;161.87;;;10.17;;
5630;SDS011;2837;50.990;7.124;2024-01-30T06:46:41;162.07;;;10.02;;
5630;SDS011;2837;50.990;7.124;2024-01-30T06:49:07;163.10;;;10.68;;
5630;SDS011;2837;50.990;7.124;2024-01-30T06:51:33;163.20;;;10.60;;
5630;SDS011;2837;50.990;7.124;2024-01-30T06:53:59;162.10;;;10.30;;
5630;SDS011;2837;50.990;7.124;2024-01-30T06:56:25;162.75;;;10.07;;
5630;SDS011;2837;50.990;7.124;2024-01-30T06:58:50;165.27;;;10.38;;
5630;SDS011;2837;50.990;7.124;2024-01-30T07:01:16;161.70;;;10.33;;
5630;SDS011;2837;50.990;7.124;2024-01-30T07:03:42;162.20;;;10.60;;
5630;SDS011;2837;50.990;7.124;2024-01-30T07:06:08;162.88;;;10.32;;
5630;SDS011;2837;50.990;7.124;2024-01-30T07:08:35;160.93;;;9.80;;
5630;SDS011;2837;50.990;7.124;2024-01-30T07:11:02;162.95;;;9.90;;
5630;SDS011;2837;50.990;7.124;2024-01-30T07:13:28;162.20;;;10.00;;
5630;SDS011;2837;50.990;7.124;2024-01-30T07:15:54;163.40;;;10.20;;
5630;SDS011;2837;50.990;7.124;2024-01-30T07:18:19;162.27;;;10.30;;
5630;SDS011;2837;50.990;7.124;2024-01-30T07:20:45;161.73;;;10.20;;
5630;SDS011;2837;50.990;7.124;2024-01-30T07:23:12;161.43;;;10.05;;
5630;SDS011;2837;50.990;7.124;2024-01-30T07:25:40;163.77;;;10.00;;
5630;SDS011;2837;50.990;7.124;2024-01-30T07:28:06;162.10;;;9.93;;
5630;SDS011;2837;50.990;7.124;2024-01-30T07:30:34;162.93;;;9.80;;
5630;SDS011;2837;50.990;7.124;2024-01-30T07:33:00;162.30;;;10.70;;
5630;SDS011;2837;50.990;7.124;2024-01-30T07:35:26;161.52;;;10.45;;
5630;SDS011;2837;50.990;7.124;2024-01-30T07:37:51;161.90;;;10.20;;
5630;SDS011;2837;50.990;7.124;2024-01-30T07:40:17;162.13;;;10.10;;
5630;SDS011;2837;50.990;7.124;2024-01-30T07:42:43;162.17;;;10.60;;
5630;SDS011;2837;50.990;7.124;2024-01-30T07:45:09;160.70;;;9.90;;
5630;SDS011;2837;50.990;7.124;2024-01-30T07:47:34;162.20;;;10.10;;
5630;SDS011;2837;50.990;7.124;2024-01-30T07:50:00;161.05;;;10.00;;
5630;SDS011;2837;50.990;7.124;2024-01-30T07:52:26;164.18;;;11.00;;
5630;SDS011;2837;50.990;7.124;2024-01-30T07:54:52;160.90;;;9.98;;
5630;SDS011;2837;50.990;7.124;2024-01-30T07:57:17;161.93;;;10.73;;
5630;SDS011;2837;50.990;7.124;2024-01-30T07:59:43;161.60;;;10.03;;
5630;SDS011;2837;50.990;7.124;2024-01-30T08:02:09;160.70;;;10.13;;
5630;SDS011;2837;50.990;7.124;2024-01-30T08:04:37;160.70;;;10.40;;
5630;SDS011;2837;50.990;7.124;2024-01-30T08:07:02;161.25;;;10.35;;
5630;SDS011;2837;50.990;7.124;2024-01-30T08:09:28;161.57;;;9.10;;
5630;SDS011;2837;50.990;7.124;2024-01-30T08:11:53;161.50;;;10.03;;
5630;SDS011;2837;50.990;7.124;2024-01-30T08:14:19;160.52;;;10.20;;
5630;SDS011;2837;50.990;7.124;2024-01-30T08:16:45;162.05;;;10.70;;
5630;SDS011;2837;50.990;7.124;2024-01-30T08:19:11;161.50;;;9.90;;
5630;SDS011;2837;50.990;7.124;2024-01-30T08:21:36;160.30;;;9.50;;
5630;SDS011;2837;50.990;7.124;2024-01-30T08:24:05;161.80;;;10.20;;
5630;SDS011;2837;50.990;7.124;2024-01-30T08:26:31;160.48;;;10.20;;
5630;SDS011;2837;50.990;7.124;2024-01-30T08:28:58;161.07;;;10.25;;
5630;SDS011;2837;50.990;7.124;2024-01-30T08:31:23;160.13;;;10.20;;
5630;SDS011;2837;50.990;7.124;2024-01-30T08:33:49;160.20;;;9.90;;
5630;SDS011;2837;50.990;7.124;2024-01-30T08:36:15;161.53;;;10.50;;
5630;SDS011;2837;50.990;7.124;2024-01-30T08:38:41;162.00;;;10.30;;
5630;SDS011;2837;50.990;7.124;2024-01-30T08:41:07;162.30;;;10.13;;
5630;SDS011;2837;50.990;7.124;2024-01-30T08:43:33;161.45;;;10.45;;
5630;SDS011;2837;50.990;7.124;2024-01-30T08:46:02;161.00;;;10.40;;
5630;SDS011;2837;50.990;7.124;2024-01-30T08:48:28;161.00;;;10.52;;
5630;SDS011;2837;50.990;7.124;2024-01-30T08:50:54;161.32;;;10.30;;
5630;SDS011;2837;50.990;7.124;2024-01-30T08:53:20;159.80;;;9.80;;
5630;SDS011;2837;50.990;7.124;2024-01-30T08:55:45;159.23;;;9.93;;
5630;SDS011;2837;50.990;7.124;2024-01-30T08:58:11;162.55;;;10.40;;
5630;SDS011;2837;50.990;7.124;2024-01-30T09:00:37;160.80;;;9.60;;
5630;SDS011;2837;50.990;7.124;2024-01-30T09:03:03;159.18;;;9.82;;
5630;SDS011;2837;50.990;7.124;2024-01-30T09:05:29;161.52;;;10.30;;
5630;SDS011;2837;50.990;7.124;2024-01-30T09:07:55;159.90;;;9.50;;
5630;SDS011;2837;50.990;7.124;2024-01-30T09:10:20;164.52;;;10.30;;
5630;SDS011;2837;50.990;7.124;2024-01-30T09:12:47;161.13;;;10.13;;
5630;SDS011;2837;50.990;7.124;2024-01-30T09:15:12;160.00;;;10.25;;
5630;SDS011;2837;50.990;7.124;2024-01-30T09:17:39;160.27;;;10.20;;
5630;SDS011;2837;50.990;7.124;2024-01-30T09:20:04;162.05;;;9.93;;
5630;SDS011;2837;50.990;7.124;2024-01-30T09:22:30;160.60;;;9.95;;
5630;SDS011;2837;50.990;7.124;2024-01-30T09:24:57;159.43;;;9.35;;
5630;SDS011;2837;50.990;7.124;2024-01-30T09:27:22;161.30;;;9.90;;
5630;SDS011;2837;50.990;7.124;2024-01-30T09:29:48;162.53;;;10.20;;
5630;SDS011;2837;50.990;7.124;2024-01-30T09:32:14;159.70;;;9.90;;
5630;SDS011;2837;50.990;7.124;2024-01-30T09:34:40;159.75;;;10.10;;
5630;SDS011;2837;50.990;7.124;2024-01-30T09:37:06;160.20;;;10.48;;
5630;SDS011;2837;50.990;7.124;2024-01-30T09:39:32;161.18;;;10.80;;
5630;SDS011;2837;50.990;7.124;2024-01-30T09:44:45;158.70;;;9.77;;
5630;SDS011;2837;50.990;7.124;2024-01-30T09:47:14;159.85;;;10.40;;
5630;SDS011;2837;50.990;7.124;2024-01-30T09:49:41;160.35;;;10.20;;
5630;SDS011;2837;50.990;7.124;2024-01-30T09:52:08;161.00;;;10.52;;
5630;SDS011;2837;50.990;7.124;2024-01-30T09:54:34;160.67;;;10.47;;
5630;SDS011;2837;50.990;7.124;2024-01-30T09:57:00;160.00;;;11.00;;
5630;SDS011;2837;50.990;7.124;2024-01-30T09:59:26;159.60;;;10.87;;
5630;SDS011;2837;50.990;7.124;2024-01-30T10:01:52;160.20;;;10.30;;
5630;SDS011;2837;50.990;7.124;2024-01-30T10:04:17;162.70;;;11.20;;
5630;SDS011;2837;50.990;7.124;2024-01-30T10:06:43;160.48;;;9.82;;
5630;SDS011;2837;50.990;7.124;2024-01-30T10:09:09;158.82;;;10.32;;
5630;SDS011;2837;50.990;7.124;2024-01-30T10:11:36;159.73;;;10.93;;
5630;SDS011;2837;50.990;7.124;2024-01-30T10:14:02;161.15;;;10.60;;
5630;SDS011;2837;50.990;7.124;2024-01-30T10:16:27;160.00;;;10.90;;
5630;SDS011;2837;50.990;7.124;2024-01-30T10:18:53;160.70;;;11.10;;
5630;SDS011;2837;50.990;7.124;2024-01-30T10:21:19;162.10;;;11.10;;
5630;SDS011;2837;50.990;7.124;2024-01-30T10:23:44;160.70;;;11.30;;
5630;SDS011;2837;50.990;7.124;2024-01-30T10:26:10;162.32;;;10.95;;
5630;SDS011;2837;50.990;7.124;2024-01-30T10:28:35;160.77;;;10.80;;
5630;SDS011;2837;50.990;7.124;2024-01-30T10:31:02;160.98;;;11.32;;
5630;SDS011;2837;50.990;7.124;2024-01-30T10:33:30;160.00;;;11.20;;
5630;SDS011;2837;50.990;7.124;2024-01-30T10:36:03;160.30;;;10.93;;
5630;SDS011;2837;50.990;7.124;2024-01-30T10:38:30;160.40;;;10.70;;
5630;SDS011;2837;50.990;7.124;2024-01-30T10:40:56;159.63;;;10.70;;
5630;SDS011;2837;50.990;7.124;2024-01-30T10:43:24;160.88;;;11.43;;
5630;SDS011;2837;50.990;7.124;2024-01-30T10:46:21;161.10;;;10.73;;
5630;SDS011;2837;50.990;7.124;2024-01-30T10:48:57;160.77;;;11.90;;
5630;SDS011;2837;50.990;7.124;2024-01-30T10:51:27;160.23;;;11.20;;
5630;SDS011;2837;50.990;7.124;2024-01-30T10:53:53;160.50;;;10.57;;
5630;SDS011;2837;50.990;7.124;2024-01-30T10:56:20;159.23;;;10.93;;
5630;SDS011;2837;50.990;7.124;2024-01-30T10:58:50;160.68;;;10.90;;
5630;SDS011;2837;50.990;7.124;2024-01-30T11:01:20;160.40;;;10.90;;
5630;SDS011;2837;50.990;7.124;2024-01-30T11:03:48;162.30;;;11.60;;
5630;SDS011;2837;50.990;7.124;2024-01-30T11:06:18;160.70;;;11.52;;
5630;SDS011;2837;50.990;7.124;2024-01-30T11:08:44;162.53;;;12.17;;
5630;SDS011;2837;50.990;7.124;2024-01-30T11:11:10;159.25;;;10.95;;
5630;SDS011;2837;50.990;7.124;2024-01-30T11:13:36;160.50;;;12.20;;
5630;SDS011;2837;50.990;7.124;2024-01-30T11:16:05;160.23;;;11.55;;
5630;SDS011;2837;50.990;7.124;2024-01-30T11:18:31;161.43;;;12.23;;
5630;SDS011;2837;50.990;7.124;2024-01-30T11:20:58;162.20;;;12.05;;
5630;SDS011;2837;50.990;7.124;2024-01-30T11:23:26;160.90;;;12.00;;
5630;SDS011;2837;50.990;7.124;2024-01-30T11:25:56;161.68;;;12.32;;
5630;SDS011;2837;50.990;7.124;2024-01-30T11:28:22;162.13;;;11.43;;
5630;SDS011;2837;50.990;7.124;2024-01-30T11:30:48;160.70;;;12.25;;
5630;SDS011;2837;50.990;7.124;2024-01-30T11:33:15;160.40;;;12.10;;
5630;SDS011;2837;50.990;7.124;2024-01-30T11:35:42;160.55;;;12.20;;
5630;SDS011;2837;50.990;7.124;2024-01-30T11:38:09;160.75;;;11.88;;
5630;SDS011;2837;50.990;7.124;2024-01-30T11:40:36;161.10;;;11.63;;
5630;SDS011;2837;50.990;7.124;2024-01-30T11:43:04;159.10;;;10.45;;
5630;SDS011;2837;50.990;7.124;2024-01-30T11:45:30;159.93;;;11.70;;
5630;SDS011;2837;50.990;7.124;2024-01-30T11:47:56;162.35;;;11.52;;
5630;SDS011;2837;50.990;7.124;2024-01-30T11:50:22;161.00;;;11.50;;
5630;SDS011;2837;50.990;7.124;2024-01-30T11:52:49;160.43;;;11.90;;
5630;SDS011;2837;50.990;7.124;2024-01-30T11:55:15;160.70;;;11.90;;
5630;SDS011;2837;50.990;7.124;2024-01-30T11:57:41;159.47;;;11.33;;
5630;SDS011;2837;50.990;7.124;2024-01-30T12:00:13;160.07;;;11.73;;
5630;SDS011;2837;50.990;7.124;2024-01-30T12:02:41;159.60;;;11.20;;
5630;SDS011;2837;50.990;7.124;2024-01-30T12:05:07;159.77;;;11.20;;
5630;SDS011;2837;50.990;7.124;2024-01-30T12:07:34;160.63;;;11.93;;
5630;SDS011;2837;50.990;7.124;2024-01-30T12:10:00;160.23;;;11.70;;
5630;SDS011;2837;50.990;7.124;2024-01-30T12:12:26;161.35;;;12.27;;
5630;SDS011;2837;50.990;7.124;2024-01-30T12:14:52;159.90;;;11.63;;
5630;SDS011;2837;50.990;7.124;2024-01-30T12:17:31;161.32;;;11.70;;
5630;SDS011;2837;50.990;7.124;2024-01-30T12:20:09;160.10;;;11.60;;
5630;SDS011;2837;50.990;7.124;2024-01-30T12:22:40;160.38;;;11.68;;
5630;SDS011;2837;50.990;7.124;2024-01-30T12:25:16;161.13;;;11.85;;
5630;SDS011;2837;50.990;7.124;2024-01-30T12:27:44;158.70;;;11.30;;
5630;SDS011;2837;50.990;7.124;2024-01-30T12:30:11;159.02;;;11.35;;
5630;SDS011;2837;50.990;7.124;2024-01-30T12:32:39;158.90;;;11.20;;
5630;SDS011;2837;50.990;7.124;2024-01-30T12:35:15;159.20;;;11.20;;
5630;SDS011;2837;50.990;7.124;2024-01-30T12:37:42;160.52;;;11.95;;
5630;SDS011;2837;50.990;7.124;2024-01-30T12:40:09;161.45;;;11.40;;
5630;SDS011;2837;50.990;7.124;2024-01-30T12:42:36;160.50;;;11.00;;
5630;SDS011;2837;50.990;7.124;2024-01-30T12:45:02;160.30;;;11.35;;
5630;SDS011;2837;50.990;7.124;2024-01-30T12:47:29;160.70;;;11.43;;
5630;SDS011;2837;50.990;7.124;2024-01-30T12:49:55;161.20;;;12.20;;
5630;SDS011;2837;50.990;7.124;2024-01-30T12:52:20;160.95;;;12.50;;
5630;SDS011;2837;50.990;7.124;2024-01-30T12:54:47;160.07;;;11.52;;
5630;SDS011;2837;50.990;7.124;2024-01-30T12:57:16;162.00;;;12.07;;
5630;SDS011;2837;50.990;7.124;2024-01-30T12:59:43;160.00;;;11.35;;
5630;SDS011;2837;50.990;7.124;2024-01-30T13:02:09;161.23;;;12.07;;
5630;SDS011;2837;50.990;7.124;2024-01-30T13:04:35;161.17;;;11.40;;
5630;SDS011;2837;50.990;7.124;2024-01-30T13:07:00;161.05;;;11.85;;
5630;SDS011;2837;50.990;7.124;2024-01-30T13:09:26;160.30;;;10.48;;
5630;SDS011;2837;50.990;7.124;2024-01-30T13:11:52;160.70;;;10.85;;
5630;SDS011;2837;50.990;7.124;2024-01-30T13:14:18;160.27;;;11.95;;
5630;SDS011;2837;50.990;7.124;2024-01-30T13:16:44;161.65;;;11.80;;
5630;SDS011;2837;50.990;7.124;2024-01-30T13:19:10;159.23;;;11.20;;
5630;SDS011;2837;50.990;7.124;2024-01-30T13:21:36;159.57;;;11.75;;
5630;SDS011;2837;50.990;7.124;2024-01-30T13:24:02;161.68;;;11.32;;
5630;SDS011;2837;50.990;7.124;2024-01-30T13:26:28;159.93;;;11.27;;
5630;SDS011;2837;50.990;7.124;2024-01-30T13:28:55;161.50;;;11.40;;
5630;SDS011;2837;50.990;7.124;2024-01-30T13:31:21;160.77;;;11.73;;
5630;SDS011;2837;50.990;7.124;2024-01-30T13:33:47;158.68;;;9.85;;
5630;SDS011;2837;50.990;7.124;2024-01-30T13:36:14;160.43;;;10.77;;
5630;SDS011;2837;50.990;7.124;2024-01-30T13:38:40;162.98;;;11.75;;
5630;SDS011;2837;50.990;7.124;2024-01-30T13:41:05;161.75;;;11.60;;
5630;SDS011;2837;50.990;7.124;2024-01-30T13:43:31;160.73;;;11.67;;
5630;SDS011;2837;50.990;7.124;2024-01-30T13:45:56;159.35;;;11.05;;
5630;SDS011;2837;50.990;7.124;2024-01-30T13:48:22;158.73;;;11.90;;
5630;SDS011;2837;50.990;7.124;2024-01-30T13:50:48;159.80;;;11.60;;
5630;SDS011;2837;50.990;7.124;2024-01-30T13:53:13;164.30;;;11.00;;
5630;SDS011;2837;50.990;7.124;2024-01-30T13:55:39;161.23;;;11.87;;
5630;SDS011;2837;50.990;7.124;2024-01-30T13:58:05;164.10;;;11.88;;
5630;SDS011;2837;50.990;7.124;2024-01-30T14:00:31;160.18;;;12.07;;
5630;SDS011;2837;50.990;7.124;2024-01-30T14:02:57;161.35;;;11.32;;
5630;SDS011;2837;50.990;7.124;2024-01-30T14:05:24;166.15;;;12.40;;
5630;SDS011;2837;50.990;7.124;2024-01-30T14:07:50;160.40;;;12.30;;
5630;SDS011;2837;50.990;7.124;2024-01-30T14:10:16;162.52;;;11.05;;
5630;SDS011;2837;50.990;7.124;2024-01-30T14:12:43;160.95;;;11.98;;
5630;SDS011;2837;50.990;7.124;2024-01-30T14:15:09;160.32;;;11.02;;
5630;SDS011;2837;50.990;7.124;2024-01-30T14:17:35;161.55;;;12.70;;
5630;SDS011;2837;50.990;7.124;2024-01-30T14:20:05;161.97;;;12.10;;
5630;SDS011;2837;50.990;7.124;2024-01-30T14:22:32;162.10;;;12.17;;
5630;SDS011;2837;50.990;7.124;2024-01-30T14:24:58;161.30;;;11.95;;
5630;SDS011;2837;50.990;7.124;2024-01-30T14:27:24;161.10;;;11.80;;
5630;SDS011;2837;50.990;7.124;2024-01-30T14:29:50;161.93;;;11.88;;
5630;SDS011;2837;50.990;7.124;2024-01-30T14:32:15;166.70;;;12.70;;
5630;SDS011;2837;50.990;7.124;2024-01-30T14:34:41;160.93;;;11.00;;
5630;SDS011;2837;50.990;7.124;2024-01-30T14:37:07;162.85;;;12.07;;
5630;SDS011;2837;50.990;7.124;2024-01-30T14:39:32;159.07;;;11.35;;
5630;SDS011;2837;50.990;7.124;2024-01-30T14:41:58;162.80;;;11.32;;
5630;SDS011;2837;50.990;7.124;2024-01-30T14:44:24;160.30;;;11.07;;
5630;SDS011;2837;50.990;7.124;2024-01-30T14:46:50;160.17;;;10.80;;
5630;SDS011;2837;50.990;7.124;2024-01-30T14:49:16;159.27;;;11.70;;
5630;SDS011;2837;50.990;7.124;2024-01-30T14:51:42;160.50;;;11.13;;
5630;SDS011;2837;50.990;7.124;2024-01-30T14:54:07;159.90;;;11.27;;
5630;SDS011;2837;50.990;7.124;2024-01-30T14:56:33;161.53;;;11.00;;
5630;SDS011;2837;50.990;7.124;2024-01-30T14:58:59;159.00;;;11.27;;
5630;SDS011;2837;50.990;7.124;2024-01-30T15:01:25;161.17;;;11.20;;
5630;SDS011;2837;50.990;7.124;2024-01-30T15:03:50;160.13;;;10.97;;
5630;SDS011;2837;50.990;7.124;2024-01-30T15:06:17;160.20;;;11.60;;
5630;SDS011;2837;50.990;7.124;2024-01-30T15:08:43;160.90;;;10.80;;
5630;SDS011;2837;50.990;7.124;2024-01-30T15:11:08;159.30;;;11.27;;
5630;SDS011;2837;50.990;7.124;2024-01-30T15:13:34;159.18;;;10.65;;
5630;SDS011;2837;50.990;7.124;2024-01-30T15:16:00;159.90;;;10.90;;
5630;SDS011;2837;50.990;7.124;2024-01-30T15:18:28;158.90;;;10.60;;
5630;SDS011;2837;50.990;7.124;2024-01-30T15:20:53;160.47;;;10.90;;
5630;SDS011;2837;50.990;7.124;2024-01-30T15:23:19;160.40;;;11.20;;
5630;SDS011;2837;50.990;7.124;2024-01-30T15:25:44;159.53;;;11.50;;
5630;SDS011;2837;50.990;7.124;2024-01-30T15:28:10;160.35;;;11.40;;
5630;SDS011;2837;50.990;7.124;2024-01-30T15:30:35;159.83;;;11.97;;
5630;SDS011;2837;50.990;7.124;2024-01-30T15:33:01;161.57;;;11.47;;
5630;SDS011;2837;50.990;7.124;2024-01-30T15:35:27;159.85;;;11.10;;
5630;SDS011;2837;50.990;7.124;2024-01-30T15:37:52;158.40;;;10.93;;
5630;SDS011;2837;50.990;7.124;2024-01-30T15:40:18;161.02;;;10.50;;
5630;SDS011;2837;50.990;7.124;2024-01-30T15:42:43;159.73;;;11.52;;
5630;SDS011;2837;50.990;7.124;2024-01-30T15:45:09;162.03;;;11.90;;
5630;SDS011;2837;50.990;7.124;2024-01-30T15:47:35;160.10;;;11.02;;
5630;SDS011;2837;50.990;7.124;2024-01-30T15:50:01;163.13;;;11.70;;
5630;SDS011;2837;50.990;7.124;2024-01-30T15:52:28;163.15;;;12.35;;
5630;SDS011;2837;50.990;7.124;2024-01-30T15:54:54;160.40;;;11.20;;
5630;SDS011;2837;50.990;7.124;2024-01-30T15:57:20;160.98;;;11.63;;
5630;SDS011;2837;50.990;7.124;2024-01-30T15:59:46;160.00;;;11.05;;
5630;SDS011;2837;50.990;7.124;2024-01-30T16:02:12;162.00;;;11.90;;
5630;SDS011;2837;50.990;7.124;2024-01-30T16:04:39;160.10;;;11.70;;
5630;SDS011;2837;50.990;7.124;2024-01-30T16:07:04;160.30;;;11.25;;
5630;SDS011;2837;50.990;7.124;2024-01-30T16:09:30;160.02;;;11.40;;
5630;SDS011;2837;50.990;7.124;2024-01-30T16:11:57;159.23;;;10.90;;
5630;SDS011;2837;50.990;7.124;2024-01-30T16:14:22;161.70;;;12.07;;
5630;SDS011;2837;50.990;7.124;2024-01-30T16:16:48;161.82;;;11.70;;
5630;SDS011;2837;50.990;7.124;2024-01-30T16:19:13;163.80;;;11.63;;
5630;SDS011;2837;50.990;7.124;2024-01-30T16:21:39;162.02;;;12.52;;
5630;SDS011;2837;50.990;7.124;2024-01-30T16:24:08;165.00;;;13.50;;
5630;SDS011;2837;50.990;7.124;2024-01-30T16:26:34;162.38;;;12.48;;
5630;SDS011;2837;50.990;7.124;2024-01-30T16:28:59;161.10;;;11.70;;
5630;SDS011;2837;50.990;7.124;2024-01-30T16:31:25;162.03;;;12.20;;
5630;SDS011;2837;50.990;7.124;2024-01-30T16:33:51;160.70;;;11.57;;
5630;SDS011;2837;50.990;7.124;2024-01-30T16:36:16;163.43;;;12.10;;
5630;SDS011;2837;50.990;7.124;2024-01-30T16:38:42;161.65;;;11.27;;
5630;SDS011;2837;50.990;7.124;2024-01-30T16:41:08;161.77;;;11.45;;
5630;SDS011;2837;50.990;7.124;2024-01-30T16:43:33;161.60;;;10.40;;
5630;SDS011;2837;50.990;7.124;2024-01-30T16:45:59;161.70;;;11.70;;
5630;SDS011;2837;50.990;7.124;2024-01-30T16:48:26;161.48;;;11.02;;
5630;SDS011;2837;50.990;7.124;2024-01-30T16:50:52;159.15;;;10.57;;
5630;SDS011;2837;50.990;7.124;2024-01-30T16:53:17;160.10;;;10.70;;
5630;SDS011;2837;50.990;7.124;2024-01-30T16:55:43;161.30;;;11.20;;
5630;SDS011;2837;50.990;7.124;2024-01-30T16:58:08;160.20;;;10.90;;
5630;SDS011;2837;50.990;7.124;2024-01-30T17:00:36;160.57;;;10.57;;
5630;SDS011;2837;50.990;7.124;2024-01-30T17:03:02;161.27;;;11.02;;
5630;SDS011;2837;50.990;7.124;2024-01-30T17:05:28;161.68;;;10.40;;
5630;SDS011;2837;50.990;7.124;2024-01-30T17:07:54;158.75;;;9.98;;
5630;SDS011;2837;50.990;7.124;2024-01-30T17:10:19;160.77;;;10.80;;
5630;SDS011;2837;50.990;7.124;2024-01-30T17:12:45;160.53;;;11.03;;
5630;SDS011;2837;50.990;7.124;2024-01-30T17:15:11;159.20;;;10.77;;
5630;SDS011;2837;50.990;7.124;2024-01-30T17:17:37;160.00;;;11.27;;
5630;SDS011;2837;50.990;7.124;2024-01-30T17:20:03;159.77;;;10.88;;
5630;SDS011;2837;50.990;7.124;2024-01-30T17:22:29;160.35;;;11.00;;
5630;SDS011;2837;50.990;7.124;2024-01-30T17:24:55;162.32;;;10.57;;
5630;SDS011;2837;50.990;7.124;2024-01-30T17:27:22;159.43;;;10.05;;
5630;SDS011;2837;50.990;7.124;2024-01-30T17:29:47;160.98;;;10.15;;
5630;SDS011;2837;50.990;7.124;2024-01-30T17:32:13;159.83;;;10.70;;
5630;SDS011;2837;50.990;7.124;2024-01-30T17:34:39;158.73;;;9.73;;
5630;SDS011;2837;50.990;7.124;2024-01-30T17:37:04;159.90;;;10.40;;
5630;SDS011;2837;50.990;7.124;2024-01-30T17:39:30;159.38;;;10.77;;
5630;SDS011;2837;50.990;7.124;2024-01-30T17:41:56;158.93;;;10.27;;
5630;SDS011;2837;50.990;7.124;2024-01-30T17:44:22;158.10;;;10.00;;
5630;SDS011;2837;50.990;7.124;2024-01-30T17:46:48;159.98;;;10.00;;
5630;SDS011;2837;50.990;7.124;2024-01-30T17:49:15;158.50;;;9.98;;
5630;SDS011;2837;50.990;7.124;2024-01-30T17:51:40;158.50;;;10.38;;
5630;SDS011;2837;50.990;7.124;2024-01-30T17:54:06;158.15;;;9.77;;
5630;SDS011;2837;50.990;7.124;2024-01-30T17:56:32;158.00;;;9.52;;
5630;SDS011;2837;50.990;7.124;2024-01-30T17:58:58;158.90;;;9.50;;
5630;SDS011;2837;50.990;7.124;2024-01-30T18:01:23;159.77;;;9.27;;
5630;SDS011;2837;50.990;7.124;2024-01-30T18:03:49;160.00;;;9.35;;
5630;SDS011;2837;50.990;7.124;2024-01-30T18:06:17;160.00;;;10.35;;
5630;SDS011;2837;50.990;7.124;2024-01-30T18:08:43;158.33;;;9.17;;
5630;SDS011;2837;50.990;7.124;2024-01-30T18:11:09;157.45;;;8.82;;
5630;SDS011;2837;50.990;7.124;2024-01-30T18:13:34;157.80;;;9.67;;
5630;SDS011;2837;50.990;7.124;2024-01-30T18:16:00;158.65;;;9.25;;
5630;SDS011;2837;50.990;7.124;2024-01-30T18:18:26;158.40;;;9.20;;
5630;SDS011;2837;50.990;7.124;2024-01-30T18:20:51;157.57;;;9.35;;
5630;SDS011;2837;50.990;7.124;2024-01-30T18:23:18;159.25;;;9.43;;
5630;SDS011;2837;50.990;7.124;2024-01-30T18:25:45;158.27;;;8.95;;
5630;SDS011;2837;50.990;7.124;2024-01-30T18:28:11;157.50;;;8.73;;
5630;SDS011;2837;50.990;7.124;2024-01-30T18:30:37;159.77;;;9.17;;
5630;SDS011;2837;50.990;7.124;2024-01-30T18:33:03;158.70;;;9.27;;
5630;SDS011;2837;50.990;7.124;2024-01-30T18:35:30;158.68;;;8.95;;
5630;SDS011;2837;50.990;7.124;2024-01-30T18:37:55;157.95;;;9.40;;
5630;SDS011;2837;50.990;7.124;2024-01-30T18:40:22;157.05;;;8.93;;
5630;SDS011;2837;50.990;7.124;2024-01-30T18:42:47;158.07;;;8.77;;
5630;SDS011;2837;50.990;7.124;2024-01-30T18:45:14;158.20;;;9.15;;
5630;SDS011;2837;50.990;7.124;2024-01-30T18:47:40;158.20;;;9.48;;
5630;SDS011;2837;50.990;7.124;2024-01-30T18:50:06;157.85;;;9.00;;
5630;SDS011;2837;50.990;7.124;2024-01-30T18:52:32;158.85;;;8.60;;
5630;SDS011;2837;50.990;7.124;2024-01-30T18:54:58;157.90;;;8.85;;
5630;SDS011;2837;50.990;7.124;2024-01-30T18:57:24;159.70;;;8.30;;
5630;SDS011;2837;50.990;7.124;2024-01-30T18:59:50;158.25;;;9.25;;
5630;SDS011;2837;50.990;7.124;2024-01-30T19:02:15;157.88;;;8.90;;
5630;SDS011;2837;50.990;7.124;2024-01-30T19:04:41;158.00;;;8.98;;
5630;SDS011;2837;50.990;7.124;2024-01-30T19:07:07;159.50;;;9.38;;
5630;SDS011;2837;50.990;7.124;2024-01-30T19:09:33;159.60;;;9.40;;
5630;SDS011;2837;50.990;7.124;2024-01-30T19:11:59;159.48;;;9.30;;
5630;SDS011;2837;50.990;7.124;2024-01-30T19:14:25;160.13;;;8.10;;
5630;SDS011;2837;50.990;7.124;2024-01-30T19:16:51;157.43;;;8.50;;
5630;SDS011;2837;50.990;7.124;2024-01-30T19:19:17;159.68;;;9.75;;
5630;SDS011;2837;50.990;7.124;2024-01-30T19:21:43;157.88;;;9.02;;
5630;SDS011;2837;50.990;7.124;2024-01-30T19:24:10;158.73;;;9.32;;
5630;SDS011;2837;50.990;7.124;2024-01-30T19:26:36;159.00;;;9.50;;
5630;SDS011;2837;50.990;7.124;2024-01-30T19:29:03;159.68;;;9.70;;
5630;SDS011;2837;50.990;7.124;2024-01-30T19:31:30;158.15;;;7.88;;
5630;SDS011;2837;50.990;7.124;2024-01-30T19:33:56;158.17;;;9.87;;
5630;SDS011;2837;50.990;7.124;2024-01-30T19:36:22;159.25;;;9.65;;
5630;SDS011;2837;50.990;7.124;2024-01-30T19:38:48;159.20;;;9.10;;
5630;SDS011;2837;50.990;7.124;2024-01-30T19:41:14;159.15;;;9.63;;
5630;SDS011;2837;50.990;7.124;2024-01-30T19:43:40;158.50;;;9.50;;
5630;SDS011;2837;50.990;7.124;2024-01-30T19:46:06;159.35;;;10.02;;
5630;SDS011;2837;50.990;7.124;2024-01-30T19:48:33;159.25;;;9.45;;
5630;SDS011;2837;50.990;7.124;2024-01-30T19:51:00;158.75;;;9.90;;
5630;SDS011;2837;50.990;7.124;2024-01-30T19:53:25;158.75;;;9.85;;
5630;SDS011;2837;50.990;7.124;2024-01-30T19:55:51;160.65;;;9.60;;
5630;SDS011;2837;50.990;7.124;2024-01-30T19:58:17;160.85;;;9.45;;
5630;SDS011;2837;50.990;7.124;2024-01-30T20:00:42;160.43;;;10.30;;
5630;SDS011;2837;50.990;7.124;2024-01-30T20:03:08;159.40;;;10.10;;
5630;SDS011;2837;50.990;7.124;2024-01-30T20:05:34;160.97;;;9.70;;
5630;SDS011;2837;50.990;7.124;2024-01-30T20:08:00;160.30;;;10.30;;
5630;SDS011;2837;50.990;7.124;2024-01-30T20:10:26;158.93;;;9.70;;
5630;SDS011;2837;50.990;7.124;2024-01-30T20:12:53;158.70;;;9.30;;
5630;SDS011;2837;50.990;7.124;2024-01-30T20:15:18;161.30;;;10.17;;
5630;SDS011;2837;50.990;7.124;2024-01-30T20:17:44;159.20;;;10.13;;
5630;SDS011;2837;50.990;7.124;2024-01-30T20:20:10;159.55;;;10.38;;
5630;SDS011;2837;50.990;7.124;2024-01-30T20:22:36;159.85;;;9.77;;
5630;SDS011;2837;50.990;7.124;2024-01-30T20:25:02;158.70;;;9.97;;
5630;SDS011;2837;50.990;7.124;2024-01-30T20:27:28;160.95;;;9.60;;
5630;SDS011;2837;50.990;7.124;2024-01-30T20:29:54;158.10;;;9.50;;
5630;SDS011;2837;50.990;7.124;2024-01-30T20:32:20;158.30;;;9.93;;
5630;SDS011;2837;50.990;7.124;2024-01-30T20:34:46;159.52;;;9.88;;